Time;durP1;ratioP1;P1;durP2;ratioP2;P2;SDS_P1;SDS_P2;PMS_P1;PMS_P2;Temp;Humidity;BMP_temperature;BMP_pressure;BME280_temperature;BME280_humidity;BME280_pressure;Samples;Min_cycle;Max_cycle;Signal;HPM_P1;HPM_P2
2021/06/14 00:02:04;;;;;;;3.40;2.87;;;14.70;65.20;;;;;;5092806;28;20921;-69
2021/06/14 00:04:41;;;;;;;6.43;3.00;;;14.60;65.00;;;;;;5092487;28;20996;-69
2021/06/14 00:07:09;;;;;;;4.27;3.53;;;14.50;65.00;;;;;;5092646;28;20469;-68
2021/06/14 00:09:36;;;;;;;3.70;3.30;;;14.50;65.40;;;;;;5092658;28;20471;-69
2021/06/14 00:12:05;;;;;;;4.03;2.60;;;14.50;65.70;;;;;;5092521;28;20961;-69
2021/06/14 00:14:32;;;;;;;5.00;2.80;;;14.50;65.90;;;;;;5092704;28;20532;-69
2021/06/14 00:16:59;;;;;;;3.60;2.73;;;14.50;65.80;;;;;;5092464;28;20439;-70
2021/06/14 00:19:26;;;;;;;5.23;4.43;;;14.50;65.70;;;;;;5092404;28;20827;-69
2021/06/14 00:21:54;;;;;;;5.33;3.27;;;14.30;65.80;;;;;;5092520;28;20463;-68
2021/06/14 00:24:22;;;;;;;3.27;2.80;;;14.40;66.10;;;;;;5092555;28;20518;-68
2021/06/14 00:26:49;;;;;;;4.83;3.00;;;14.30;66.10;;;;;;5092377;28;20910;-68
2021/06/14 00:29:16;;;;;;;3.67;3.30;;;14.30;66.40;;;;;;5092445;28;20478;-68
2021/06/14 00:31:42;;;;;;;4.30;2.97;;;14.20;66.70;;;;;;5092327;28;20477;-68
2021/06/14 00:34:09;;;;;;;7.10;3.50;;;14.20;67.00;;;;;;5092244;28;20977;-68
2021/06/14 00:36:36;;;;;;;4.40;2.53;;;14.10;67.10;;;;;;5092444;28;20470;-68
2021/06/14 00:39:04;;;;;;;4.07;3.23;;;14.10;67.00;;;;;;5092454;28;20479;-69
2021/06/14 00:41:32;;;;;;;5.10;3.87;;;14.10;67.30;;;;;;5092116;28;20490;-68
2021/06/14 00:43:59;;;;;;;4.53;3.53;;;14.10;67.50;;;;;;5092154;28;20443;-68
2021/06/14 00:46:26;;;;;;;5.80;3.50;;;14.00;68.00;;;;;;5092273;28;20486;-69
2021/06/14 00:48:53;;;;;;;5.47;3.53;;;14.00;67.90;;;;;;5093098;28;20534;-68
2021/06/14 00:51:20;;;;;;;6.60;3.93;;;13.90;68.50;;;;;;5096074;28;20936;-68
2021/06/14 00:53:55;;;;;;;5.60;2.90;;;13.90;68.80;;;;;;5095946;28;20520;-68
2021/06/14 00:56:23;;;;;;;5.10;2.70;;;13.90;69.00;;;;;;5095822;28;20434;-68
2021/06/14 00:58:52;;;;;;;3.83;3.43;;;13.80;69.10;;;;;;5095984;28;20441;-68
2021/06/14 01:01:19;;;;;;;3.40;2.77;;;13.80;69.40;;;;;;5095810;28;20442;-68
2021/06/14 01:03:46;;;;;;;3.80;2.80;;;13.70;69.40;;;;;;5095539;28;20482;-68
2021/06/14 01:06:15;;;;;;;6.43;3.75;;;13.60;69.60;;;;;;5095443;28;20303;-68
2021/06/14 01:08:46;;;;;;;6.03;3.40;;;13.60;69.60;;;;;;5095716;28;20219;-68
2021/06/14 01:11:19;;;;;;;4.07;2.90;;;13.70;70.10;;;;;;5095617;28;20463;-68
2021/06/14 01:13:56;;;;;;;5.80;3.53;;;13.60;70.00;;;;;;5095514;28;20439;-68
2021/06/14 01:16:32;;;;;;;4.68;3.75;;;13.50;70.50;;;;;;5095339;28;20197;-68
2021/06/14 01:19:03;;;;;;;6.30;3.42;;;13.40;70.70;;;;;;5095534;28;20211;-68
2021/06/14 01:21:32;;;;;;;7.32;3.67;;;13.40;71.10;;;;;;5095083;28;20228;-69
2021/06/14 01:24:23;;;;;;;7.38;4.00;;;13.40;71.50;;;;;;5095317;28;20231;-68
2021/06/14 01:26:59;;;;;;;5.45;3.90;;;13.40;71.10;;;;;;5095320;28;20298;-68
2021/06/14 01:29:29;;;;;;;5.18;4.45;;;13.40;71.40;;;;;;5095102;28;20193;-68
2021/06/14 01:31:57;;;;;;;7.20;4.03;;;13.30;71.60;;;;;;5095088;28;20225;-69
2021/06/14 01:34:26;;;;;;;10.60;4.70;;;13.30;71.60;;;;;;5095149;28;20663;-68
2021/06/14 01:36:56;;;;;;;4.38;3.88;;;13.30;71.80;;;;;;5095070;28;20199;-68
2021/06/14 01:39:24;;;;;;;4.93;4.03;;;13.30;72.10;;;;;;5095121;28;20192;-69
2021/06/14 01:41:52;;;;;;;4.10;3.05;;;13.20;73.00;;;;;;5095107;28;20656;-68
2021/06/14 01:44:20;;;;;;;4.85;3.60;;;13.20;73.10;;;;;;5094891;28;20185;-68
2021/06/14 01:46:50;;;;;;;5.55;4.00;;;13.20;72.90;;;;;;5094934;28;20703;-70
2021/06/14 01:49:18;;;;;;;4.40;3.20;;;13.10;73.40;;;;;;5094835;28;20193;-68
2021/06/14 01:51:45;;;;;;;3.80;3.38;;;13.20;73.70;;;;;;5094750;28;20232;-68
2021/06/14 01:54:13;;;;;;;4.28;3.38;;;13.20;73.00;;;;;;5094812;28;20246;-69
2021/06/14 01:56:43;;;;;;;4.53;3.60;;;13.10;72.90;;;;;;5094625;28;20225;-69
2021/06/14 01:59:16;;;;;;;5.85;3.13;;;13.10;73.10;;;;;;5094602;28;20276;-68
2021/06/14 02:01:45;;;;;;;6.40;3.83;;;13.10;73.00;;;;;;5093912;28;20300;-68
2021/06/14 02:04:15;;;;;;;4.75;3.30;;;13.00;72.90;;;;;;5094401;28;20235;-68
2021/06/14 02:06:44;;;;;;;3.63;3.13;;;13.00;73.30;;;;;;5094394;28;20229;-67
2021/06/14 02:09:13;;;;;;;12.07;3.85;;;13.00;73.20;;;;;;5094335;28;20228;-68
2021/06/14 02:11:44;;;;;;;6.95;3.58;;;13.00;72.90;;;;;;5094249;28;20231;-67
2021/06/14 02:14:12;;;;;;;3.78;3.05;;;13.00;73.00;;;;;;5094273;28;20224;-68
2021/06/14 02:16:46;;;;;;;6.22;3.70;;;13.00;73.50;;;;;;5094278;28;20246;-68
2021/06/14 02:19:15;;;;;;;6.65;3.63;;;13.10;73.40;;;;;;5094206;28;20639;-68
2021/06/14 02:21:42;;;;;;;4.43;3.30;;;13.00;73.40;;;;;;5094238;28;20227;-68
2021/06/14 02:24:10;;;;;;;4.15;3.75;;;13.00;73.40;;;;;;5094159;28;20655;-68
2021/06/14 02:26:37;;;;;;;4.10;3.25;;;12.90;73.40;;;;;;5093818;28;20232;-68
2021/06/14 02:29:04;;;;;;;5.60;3.10;;;12.90;72.90;;;;;;5094029;28;20232;-68
2021/06/14 02:31:33;;;;;;;4.85;3.90;;;12.90;72.90;;;;;;5094112;28;20193;-68
2021/06/14 02:34:00;;;;;;;5.05;3.70;;;12.90;73.40;;;;;;5093982;28;20239;-68
2021/06/14 02:36:30;;;;;;;4.15;3.50;;;12.80;73.30;;;;;;5094080;28;20189;-69
2021/06/14 02:39:03;;;;;;;10.00;3.50;;;12.80;73.50;;;;;;5093898;28;20596;-68
2021/06/14 02:41:30;;;;;;;5.47;4.00;;;12.70;73.70;;;;;;5093959;28;20297;-68
2021/06/14 02:44:03;;;;;;;4.03;3.63;;;12.60;74.50;;;;;;5093539;28;20276;-68
2021/06/14 02:46:31;;;;;;;6.05;4.13;;;12.60;75.00;;;;;;5093522;28;20217;-67
2021/06/14 02:48:58;;;;;;;6.47;3.92;;;12.60;74.80;;;;;;5093305;28;20184;-68
2021/06/14 02:51:25;;;;;;;3.38;2.50;;;12.50;74.30;;;;;;5093367;28;20189;-67
2021/06/14 02:54:04;;;;;;;4.95;3.65;;;12.50;74.60;;;;;;5093724;28;20185;-67
2021/06/14 02:56:33;;;;;;;4.22;3.40;;;12.50;74.50;;;;;;5093830;28;20201;-67
2021/06/14 02:59:01;;;;;;;4.72;3.72;;;12.50;74.60;;;;;;5093526;28;20242;-67
2021/06/14 03:01:30;;;;;;;5.00;3.80;;;12.50;74.30;;;;;;5093567;28;20199;-67
2021/06/14 03:03:58;;;;;;;5.15;3.13;;;12.50;74.50;;;;;;5093507;28;20220;-68
2021/06/14 03:06:27;;;;;;;5.28;3.60;;;12.50;74.60;;;;;;5093471;28;20219;-67
2021/06/14 03:08:56;;;;;;;5.75;3.38;;;12.50;74.30;;;;;;5093480;28;20310;-67
2021/06/14 03:11:25;;;;;;;3.33;2.60;;;12.50;74.80;;;;;;5092932;28;20211;-67
2021/06/14 03:13:54;;;;;;;5.13;4.20;;;12.50;75.00;;;;;;5093067;28;20321;-67
2021/06/14 03:16:23;;;;;;;6.25;4.00;;;12.40;74.70;;;;;;5093013;28;20228;-67
2021/06/14 03:18:51;;;;;;;5.50;3.35;;;12.30;75.20;;;;;;5092982;28;20197;-67
2021/06/14 03:21:19;;;;;;;6.47;4.00;;;12.20;75.70;;;;;;5093081;28;20275;-67
2021/06/14 03:23:48;;;;;;;5.18;3.85;;;12.20;75.80;;;;;;5093276;28;20227;-68
2021/06/14 03:26:18;;;;;;;5.00;3.75;;;12.20;75.70;;;;;;5092834;28;20771;-67
2021/06/14 03:28:47;;;;;;;4.43;3.75;;;12.20;75.50;;;;;;5093044;28;20631;-67
2021/06/14 03:31:15;;;;;;;5.50;3.42;;;12.20;75.60;;;;;;5092985;28;20220;-67
2021/06/14 03:33:47;;;;;;;4.35;3.80;;;12.20;76.20;;;;;;5092914;28;20189;-67
2021/06/14 03:36:16;;;;;;;8.60;3.55;;;12.10;76.20;;;;;;5092919;28;20232;-69
2021/06/14 03:38:45;;;;;;;4.10;3.70;;;12.10;75.60;;;;;;5092775;28;20228;-67
2021/06/14 03:41:12;;;;;;;6.25;3.47;;;12.10;75.80;;;;;;5092920;28;20246;-67
2021/06/14 03:43:41;;;;;;;6.57;3.75;;;12.10;76.70;;;;;;5092935;28;20674;-67
2021/06/14 03:46:08;;;;;;;5.25;3.70;;;12.10;77.10;;;;;;5092691;28;20308;-68
2021/06/14 03:48:35;;;;;;;5.28;3.65;;;12.00;76.90;;;;;;5092727;28;20228;-68
2021/06/14 03:51:02;;;;;;;5.15;3.00;;;12.10;76.80;;;;;;5092677;28;20227;-68
2021/06/14 03:53:31;;;;;;;3.90;3.55;;;12.10;76.90;;;;;;5092978;28;20244;-68
2021/06/14 03:55:58;;;;;;;4.95;3.90;;;12.10;77.30;;;;;;5092756;28;20232;-68
2021/06/14 03:58:25;;;;;;;4.07;3.33;;;12.10;77.50;;;;;;5092869;28;20229;-68
2021/06/14 04:00:54;;;;;;;8.68;3.95;;;12.00;77.80;;;;;;5092877;28;20193;-67
2021/06/14 04:03:24;;;;;;;7.80;4.20;;;12.10;77.70;;;;;;5093175;28;20232;-68
2021/06/14 04:05:51;;;;;;;5.65;3.95;;;12.00;78.00;;;;;;5092967;28;20227;-68
2021/06/14 04:08:18;;;;;;;5.05;4.03;;;11.90;78.40;;;;;;5093040;28;20193;-67
2021/06/14 04:10:45;;;;;;;5.25;4.07;;;11.90;79.00;;;;;;5092989;28;20238;-67
2021/06/14 04:13:12;;;;;;;5.18;3.53;;;11.90;79.30;;;;;;5092888;28;20224;-68
2021/06/14 04:15:39;;;;;;;6.93;3.70;;;12.00;79.40;;;;;;5092838;28;20682;-68
2021/06/14 04:18:07;;;;;;;3.90;3.45;;;12.10;79.60;;;;;;5092834;28;20244;-68
2021/06/14 04:20:37;;;;;;;8.90;3.60;;;12.20;79.80;;;;;;5092699;28;20232;-68
2021/06/14 04:23:04;;;;;;;5.18;4.03;;;12.20;79.00;;;;;;5093011;28;20584;-68
2021/06/14 04:25:31;;;;;;;9.52;4.25;;;12.20;78.90;;;;;;5095876;28;20306;-68
2021/06/14 04:28:07;;;;;;;5.10;3.70;;;12.20;79.30;;;;;;5096427;28;20248;-68
2021/06/14 04:30:34;;;;;;;7.43;4.70;;;12.30;80.20;;;;;;5096782;28;20531;-68
2021/06/14 04:33:04;;;;;;;8.00;4.35;;;12.40;80.70;;;;;;5096372;28;20221;-67
2021/06/14 04:35:37;;;;;;;6.05;4.68;;;12.30;79.70;;;;;;5096538;28;20285;-68
2021/06/14 04:38:04;;;;;;;4.97;4.18;;;12.30;80.60;;;;;;5096106;28;20189;-69
2021/06/14 04:40:33;;;;;;;4.03;3.38;;;12.40;80.90;;;;;;5096371;28;20224;-68
2021/06/14 04:43:00;;;;;;;5.22;4.30;;;12.40;81.50;;;;;;5089400;28;20208;-68
2021/06/14 04:45:27;;;;;;;6.38;5.40;;;12.40;81.90;;;;;;5093103;28;20208;-68
2021/06/14 04:47:54;;;;;;;9.77;4.70;;;12.60;83.00;;;;;;5093792;28;20585;-68
2021/06/14 04:50:21;;;;;;;6.50;5.35;;;12.70;82.80;;;;;;5093878;28;20224;-69
2021/06/14 04:52:50;;;;;;;6.55;4.30;;;12.80;82.20;;;;;;5089065;28;20196;-68
2021/06/14 04:55:17;;;;;;;5.28;4.70;;;12.90;82.00;;;;;;5093976;28;20196;-68
2021/06/14 04:57:44;;;;;;;7.65;3.97;;;13.00;82.10;;;;;;5093574;28;20193;-68
2021/06/14 05:00:12;;;;;;;6.32;4.07;;;13.00;81.60;;;;;;5093192;28;20189;-69
2021/06/14 05:02:39;;;;;;;4.55;4.00;;;13.20;82.30;;;;;;5093415;28;20549;-68
2021/06/14 05:05:08;;;;;;;6.50;4.53;;;13.30;82.10;;;;;;5093267;28;21417;-69
2021/06/14 05:07:35;;;;;;;7.53;5.00;;;13.40;81.80;;;;;;5092868;28;20188;-68
2021/06/14 05:10:04;;;;;;;7.00;3.80;;;13.50;81.80;;;;;;5092191;28;20189;-69
2021/06/14 05:12:32;;;;;;;7.60;4.88;;;13.60;81.60;;;;;;5089843;28;20220;-68
2021/06/14 05:15:00;;;;;;;5.93;4.97;;;13.70;81.40;;;;;;5093243;28;20193;-69
2021/06/14 05:17:27;;;;;;;4.80;3.90;;;13.80;81.40;;;;;;5093462;28;20193;-69
2021/06/14 05:19:59;;;;;;;7.68;4.55;;;13.90;80.10;;;;;;5085254;28;20242;-68
2021/06/14 05:22:26;;;;;;;9.40;4.40;;;14.00;78.90;;;;;;5093361;28;20235;-68
2021/06/14 05:24:53;;;;;;;5.67;4.43;;;14.10;78.10;;;;;;5092926;28;20489;-68
2021/06/14 05:27:21;;;;;;;9.17;4.43;;;14.10;77.80;;;;;;5092715;28;20483;-68
2021/06/14 05:29:48;;;;;;;5.87;4.90;;;14.10;78.30;;;;;;5093204;28;20500;-68
2021/06/14 05:32:15;;;;;;;9.30;5.33;;;14.30;78.60;;;;;;5091893;28;20435;-69
2021/06/14 05:34:42;;;;;;;7.83;4.87;;;14.30;78.80;;;;;;5093143;28;20998;-69
2021/06/14 05:37:10;;;;;;;6.10;4.77;;;14.50;78.80;;;;;;5091478;28;20435;-68
2021/06/14 05:39:37;;;;;;;5.80;4.30;;;14.50;78.80;;;;;;5093159;28;20439;-68
2021/06/14 05:42:04;;;;;;;5.80;4.10;;;14.60;78.80;;;;;;5092650;28;20434;-69
2021/06/14 05:44:33;;;;;;;9.20;4.60;;;14.70;78.60;;;;;;5092957;28;20444;-69
2021/06/14 05:47:00;;;;;;;6.27;4.50;;;14.70;78.10;;;;;;5090339;28;20470;-68
2021/06/14 05:49:29;;;;;;;5.77;5.17;;;14.80;78.70;;;;;;5093168;28;21051;-69
2021/06/14 05:51:56;;;;;;;7.77;4.77;;;14.90;78.60;;;;;;5091911;28;20469;-68
2021/06/14 05:54:23;;;;;;;5.87;3.90;;;15.00;78.90;;;;;;5090120;28;20502;-69
2021/06/14 05:56:50;;;;;;;6.20;4.57;;;15.10;78.60;;;;;;5092817;28;20439;-70
2021/06/14 05:59:17;;;;;;;7.77;3.60;;;15.20;77.80;;;;;;5092178;28;20447;-69
2021/06/14 06:01:45;;;;;;;6.77;4.20;;;15.40;78.00;;;;;;5092995;28;20439;-68
2021/06/14 06:04:14;;;;;;;6.83;4.23;;;15.50;77.70;;;;;;5090554;28;20500;-70
2021/06/14 06:06:41;;;;;;;4.70;4.10;;;15.60;78.20;;;;;;5088985;28;20482;-68
2021/06/14 06:09:08;;;;;;;8.00;5.47;;;15.70;78.00;;;;;;5091284;28;20473;-68
2021/06/14 06:11:37;;;;;;;5.80;4.40;;;15.80;78.10;;;;;;5093092;28;20477;-70
2021/06/14 06:14:04;;;;;;;5.10;4.60;;;15.90;77.70;;;;;;5089141;28;20447;-68
2021/06/14 06:16:32;;;;;;;10.23;6.00;;;16.10;77.00;;;;;;5092163;28;20476;-69
2021/06/14 06:19:00;;;;;;;6.73;4.30;;;16.10;76.30;;;;;;5091231;28;21025;-69
2021/06/14 06:21:27;;;;;;;4.93;4.30;;;16.20;74.90;;;;;;5088849;28;20473;-69
2021/06/14 06:23:54;;;;;;;8.10;4.07;;;16.30;74.10;;;;;;5083680;28;20481;-68
2021/06/14 06:26:21;;;;;;;5.80;4.77;;;16.30;73.90;;;;;;5090861;28;21898;-68
2021/06/14 06:28:50;;;;;;;4.30;3.90;;;16.40;75.30;;;;;;5092183;28;20474;-68
2021/06/14 06:31:23;;;;;;;4.20;3.40;;;16.50;74.50;;;;;;5091415;28;20435;-69
2021/06/14 06:33:51;;;;;;;4.57;3.30;;;16.60;74.50;;;;;;5091472;28;20478;-69
2021/06/14 06:36:19;;;;;;;5.73;4.40;;;16.70;74.10;;;;;;5091787;28;20474;-68
2021/06/14 06:38:49;;;;;;;4.63;4.00;;;16.80;73.50;;;;;;5091893;28;20512;-69
2021/06/14 06:41:16;;;;;;;5.40;3.73;;;16.80;72.20;;;;;;5090652;28;20451;-68
2021/06/14 06:43:43;;;;;;;5.40;3.00;;;16.90;71.50;;;;;;5087259;28;21009;-69
2021/06/14 06:46:12;;;;;;;6.33;3.80;;;16.90;70.60;;;;;;5089118;28;20908;-72
2021/06/14 06:48:39;;;;;;;4.70;3.50;;;17.00;70.70;;;;;;5086609;28;20435;-69
2021/06/14 06:51:06;;;;;;;6.27;3.90;;;17.10;71.70;;;;;;5091618;28;21749;-69
2021/06/14 06:53:35;;;;;;;8.83;3.60;;;17.20;72.20;;;;;;5090730;28;20471;-69
2021/06/14 06:56:05;;;;;;;7.50;6.40;;;17.30;71.50;;;;;;5092941;28;20427;-69
2021/06/14 06:58:32;;;;;;;11.60;4.63;;;17.40;71.20;;;;;;5092788;28;20435;-69
2021/06/14 07:00:59;;;;;;;4.67;3.37;;;17.50;71.00;;;;;;5088065;28;20443;-69
2021/06/14 07:03:27;;;;;;;5.53;4.13;;;17.60;70.20;;;;;;5089029;28;20504;-69
2021/06/14 07:05:54;;;;;;;4.90;3.60;;;17.70;70.10;;;;;;5090055;28;20458;-69
2021/06/14 07:08:26;;;;;;;6.77;3.40;;;17.80;70.50;;;;;;5089192;28;20453;-70
2021/06/14 07:10:55;;;;;;;4.33;3.60;;;18.00;71.40;;;;;;5089891;28;20439;-69
2021/06/14 07:13:22;;;;;;;4.30;3.90;;;18.10;70.30;;;;;;5087805;28;20442;-69
2021/06/14 07:15:49;;;;;;;4.73;3.43;;;18.20;69.80;;;;;;5090744;28;21227;-69
2021/06/14 07:18:16;;;;;;;6.43;3.27;;;18.30;69.30;;;;;;5090659;28;20431;-69
2021/06/14 07:20:43;;;;;;;4.87;3.47;;;18.40;69.40;;;;;;5090322;28;20442;-69
2021/06/14 07:23:10;;;;;;;4.43;2.90;;;18.60;68.80;;;;;;5090708;28;20439;-68
2021/06/14 07:25:37;;;;;;;6.23;2.93;;;18.60;67.60;;;;;;5090319;28;21291;-69
2021/06/14 07:28:06;;;;;;;4.93;2.97;;;18.80;67.40;;;;;;5091022;28;20540;-69
2021/06/14 07:30:34;;;;;;;4.53;2.90;;;18.90;67.70;;;;;;5090665;28;20485;-69
2021/06/14 07:33:01;;;;;;;5.03;3.63;;;19.00;67.40;;;;;;5092906;28;20514;-69
2021/06/14 07:35:28;;;;;;;6.17;4.83;;;19.10;67.50;;;;;;5092386;28;20484;-69
2021/06/14 07:37:55;;;;;;;5.30;3.50;;;19.20;66.90;;;;;;5092682;28;20467;-69
2021/06/14 07:40:27;;;;;;;4.60;2.00;;;19.30;65.90;;;;;;5090697;28;20932;-71
2021/06/14 07:42:54;;;;;;;6.10;2.60;;;19.50;65.60;;;;;;5088107;28;20438;-70
2021/06/14 07:45:24;;;;;;;5.40;2.37;;;19.60;63.60;;;;;;5090897;28;20450;-70
2021/06/14 07:47:51;;;;;;;3.23;1.70;;;19.70;62.20;;;;;;5086363;28;20558;-69
2021/06/14 07:50:19;;;;;;;3.67;1.80;;;19.80;60.90;;;;;;5090928;28;20435;-69
2021/06/14 07:52:46;;;;;;;4.20;2.40;;;19.90;58.90;;;;;;5089996;28;20435;-69
2021/06/14 07:55:13;;;;;;;4.23;2.17;;;20.00;58.50;;;;;;5090653;28;20435;-70
2021/06/14 07:57:41;;;;;;;4.80;2.27;;;20.10;56.90;;;;;;5088869;28;20856;-70
2021/06/14 08:00:11;;;;;;;4.23;2.10;;;20.20;56.20;;;;;;5093668;28;20802;-70
2021/06/14 08:02:40;;;;;;;3.50;2.13;;;20.30;55.70;;;;;;5093739;28;20488;-69
2021/06/14 08:05:09;;;;;;;3.77;2.33;;;20.40;56.20;;;;;;5094518;28;20446;-69
2021/06/14 08:07:36;;;;;;;3.03;1.60;;;20.50;56.70;;;;;;5094531;28;20483;-70
2021/06/14 08:10:06;;;;;;;3.90;2.33;;;20.70;56.70;;;;;;5094735;28;20431;-70
2021/06/14 08:12:38;;;;;;;6.57;2.70;;;20.80;56.20;;;;;;5093649;28;20474;-69
2021/06/14 08:15:06;;;;;;;3.20;1.97;;;20.90;54.00;;;;;;5094123;28;20601;-70
2021/06/14 08:17:33;;;;;;;4.27;2.00;;;21.10;55.40;;;;;;5094288;28;20928;-69
2021/06/14 08:20:07;;;;;;;2.30;1.60;;;21.10;53.70;;;;;;5093581;28;20489;-71
2021/06/14 08:25:02;;;;;;;8.90;2.60;;;21.30;53.80;;;;;;5094271;28;20435;-70
2021/06/14 08:25:24;;;;;;;3.17;2.60;;;21.40;55.00;;;;;;5094226;28;20434;-69
2021/06/14 08:27:56;;;;;;;4.27;2.17;;;21.50;53.80;;;;;;5091960;28;20475;-69
2021/06/14 08:30:26;;;;;;;4.67;3.13;;;21.70;54.80;;;;;;5093744;28;20442;-69
2021/06/14 08:32:53;;;;;;;7.17;2.03;;;21.80;55.40;;;;;;5093753;28;20438;-69
2021/06/14 08:35:23;;;;;;;6.33;2.27;;;21.90;55.00;;;;;;5094095;28;20493;-69
2021/06/14 08:37:52;;;;;;;4.03;1.90;;;22.00;54.20;;;;;;5093628;28;20504;-70
2021/06/14 08:40:22;;;;;;;6.40;3.70;;;22.10;54.40;;;;;;5090105;28;20434;-70
2021/06/14 08:42:49;;;;;;;3.90;2.40;;;22.20;53.80;;;;;;5093470;28;20484;-69
2021/06/14 08:45:18;;;;;;;5.23;2.17;;;22.30;52.00;;;;;;5093628;28;20472;-71
2021/06/14 08:47:46;;;;;;;4.10;1.83;;;22.40;51.50;;;;;;5089483;28;20486;-70
2021/06/14 08:50:16;;;;;;;4.63;2.47;;;22.50;52.20;;;;;;5093751;28;20434;-69
2021/06/14 08:52:45;;;;;;;4.67;2.50;;;22.60;52.80;;;;;;5093375;28;20439;-69
2021/06/14 08:55:14;;;;;;;5.10;2.10;;;22.70;50.80;;;;;;5092956;28;20467;-70
2021/06/14 08:57:41;;;;;;;4.97;1.70;;;22.90;51.50;;;;;;5092933;28;20434;-70
2021/06/14 09:00:13;;;;;;;4.00;2.10;;;23.00;51.30;;;;;;5094052;28;20436;-70
2021/06/14 09:02:42;;;;;;;4.53;1.90;;;23.10;50.80;;;;;;5093228;28;20462;-69
2021/06/14 09:05:15;;;;;;;5.00;2.07;;;23.20;51.40;;;;;;5093364;28;20476;-69
2021/06/14 09:07:44;;;;;;;3.20;1.70;;;23.30;50.60;;;;;;5093120;28;20482;-70
2021/06/14 09:10:23;;;;;;;2.67;1.80;;;23.40;51.10;;;;;;5090520;28;20430;-69
2021/06/14 09:12:50;;;;;;;6.87;2.00;;;23.50;49.90;;;;;;5092785;28;20445;-70
2021/06/14 09:15:17;;;;;;;6.30;2.43;;;23.60;49.60;;;;;;5092100;28;20435;-70
2021/06/14 09:17:52;;;;;;;2.67;1.67;;;23.70;49.20;;;;;;5092381;28;20427;-70
2021/06/14 09:20:20;;;;;;;4.40;2.47;;;23.80;47.60;;;;;;5091267;28;20947;-69
2021/06/14 09:22:48;;;;;;;3.30;1.90;;;23.90;49.00;;;;;;5092234;28;20831;-68
2021/06/14 09:25:17;;;;;;;3.80;2.10;;;24.10;47.00;;;;;;5093346;28;20431;-70
2021/06/14 09:27:46;;;;;;;4.97;1.80;;;24.20;45.20;;;;;;5092275;28;20522;-67
2021/06/14 09:30:20;;;;;;;9.53;2.57;;;24.20;46.00;;;;;;5092442;28;20431;-68
2021/06/14 09:32:54;;;;;;;3.87;2.10;;;24.30;46.10;;;;;;5089083;28;20427;-69
2021/06/14 09:35:25;;;;;;;3.13;2.20;;;24.30;47.10;;;;;;5091847;28;20935;-70
2021/06/14 09:38:02;;;;;;;4.27;2.03;;;24.40;47.30;;;;;;5088221;28;20446;-70
2021/06/14 09:40:36;;;;;;;6.20;2.23;;;24.60;46.90;;;;;;5092028;28;20435;-70
2021/06/14 09:43:05;;;;;;;7.73;1.67;;;24.60;46.20;;;;;;5092456;28;20454;-70
2021/06/14 09:45:32;;;;;;;8.20;2.20;;;24.70;46.90;;;;;;5090201;28;20497;-71
2021/06/14 09:48:00;;;;;;;3.67;2.20;;;24.80;46.80;;;;;;5090551;28;20529;-71
2021/06/14 09:50:30;;;;;;;3.47;1.97;;;24.90;47.70;;;;;;5091294;28;20443;-72
2021/06/14 09:53:10;;;;;;;4.03;2.20;;;25.10;47.10;;;;;;5092187;28;20479;-71
2021/06/14 09:55:37;;;;;;;2.67;2.30;;;25.10;46.30;;;;;;5090989;28;20438;-71
2021/06/14 09:58:16;;;;;;;3.03;1.93;;;25.20;46.90;;;;;;5092119;28;20441;-69
2021/06/14 10:00:48;;;;;;;6.23;2.53;;;25.30;44.10;;;;;;5091633;28;20431;-69
2021/06/14 10:03:15;;;;;;;3.20;1.70;;;25.40;42.20;;;;;;5089202;28;20435;-69
2021/06/14 10:05:46;;;;;;;5.13;2.27;;;25.40;42.40;;;;;;5091494;28;20449;-70
2021/06/14 10:08:25;;;;;;;3.90;2.30;;;25.40;43.30;;;;;;5091447;28;20478;-72
2021/06/14 10:11:01;;;;;;;3.43;1.87;;;25.40;44.30;;;;;;5091206;28;20435;-70
2021/06/14 10:13:29;;;;;;;7.33;1.67;;;25.50;44.10;;;;;;5090516;28;20524;-70
2021/06/14 10:16:01;;;;;;;6.80;2.23;;;25.50;41.20;;;;;;5091408;28;20438;-70
2021/06/14 10:18:32;;;;;;;5.03;2.00;;;25.60;40.50;;;;;;5091359;28;20470;-71
2021/06/14 10:20:59;;;;;;;3.43;1.73;;;25.40;39.10;;;;;;5090624;28;20812;-69
2021/06/14 10:23:27;;;;;;;4.10;2.03;;;25.50;41.50;;;;;;5090061;28;20435;-70
2021/06/14 10:25:57;;;;;;;7.00;2.13;;;25.60;41.10;;;;;;5091350;28;20440;-70
2021/06/14 10:28:25;;;;;;;3.80;1.70;;;25.60;42.50;;;;;;5090577;28;20482;-70
2021/06/14 10:30:53;;;;;;;6.20;1.77;;;25.70;42.70;;;;;;5087489;28;20439;-70
2021/06/14 10:33:24;;;;;;;3.73;2.00;;;25.80;41.60;;;;;;5091048;28;20460;-70
2021/06/14 10:35:54;;;;;;;4.70;1.80;;;25.90;41.30;;;;;;5091274;28;20500;-70
2021/06/14 10:38:22;;;;;;;3.60;2.50;;;26.00;41.30;;;;;;5075845;28;20445;-70
2021/06/14 10:40:53;;;;;;;4.73;2.33;;;26.00;42.30;;;;;;5086675;28;20433;-70
2021/06/14 10:43:28;;;;;;;7.23;2.20;;;26.10;41.90;;;;;;5092860;28;20468;-69
2021/06/14 10:45:57;;;;;;;7.33;2.27;;;26.20;38.40;;;;;;5090219;28;20847;-70
2021/06/14 10:48:28;;;;;;;4.53;2.07;;;26.20;39.20;;;;;;5087379;28;20472;-69
2021/06/14 10:50:57;;;;;;;2.70;1.63;;;26.20;40.60;;;;;;5091622;28;20787;-69
2021/06/14 10:53:25;;;;;;;3.50;1.60;;;26.30;38.70;;;;;;5090395;28;20823;-71
2021/06/14 10:55:55;;;;;;;3.70;2.10;;;26.40;38.70;;;;;;5091921;28;20432;-70
2021/06/14 10:58:27;;;;;;;3.17;1.80;;;26.40;39.20;;;;;;5090855;28;20432;-73
2021/06/14 11:01:09;;;;;;;2.70;1.80;;;26.50;39.70;;;;;;5081853;28;20438;-70
2021/06/14 11:03:42;;;;;;;5.13;2.03;;;26.60;41.00;;;;;;5090648;28;20435;-70
2021/06/14 11:06:18;;;;;;;4.00;1.83;;;26.70;40.80;;;;;;5090547;28;20494;-70
2021/06/14 11:08:55;;;;;;;3.80;1.97;;;26.70;40.30;;;;;;5083660;28;20499;-69
2021/06/14 11:11:25;;;;;;;7.23;2.00;;;26.70;39.90;;;;;;5090414;28;20438;-70
2021/06/14 11:13:52;;;;;;;4.03;1.73;;;26.80;38.80;;;;;;5075099;28;20496;-69
2021/06/14 11:16:20;;;;;;;4.47;1.87;;;26.80;37.60;;;;;;5090876;28;20908;-70
2021/06/14 11:18:49;;;;;;;3.10;1.43;;;26.80;36.50;;;;;;5089836;28;20449;-71
2021/06/14 11:21:18;;;;;;;4.00;2.00;;;26.80;36.60;;;;;;5086577;28;20834;-70
2021/06/14 11:23:47;;;;;;;3.03;1.87;;;26.80;32.90;;;;;;5091219;28;20952;-69
2021/06/14 11:26:27;;;;;;;5.60;2.10;;;26.70;34.70;;;;;;5091271;28;20439;-70
2021/06/14 11:28:55;;;;;;;5.00;1.97;;;26.80;36.80;;;;;;5090971;28;20485;-70
2021/06/14 11:31:24;;;;;;;3.03;1.60;;;26.80;35.60;;;;;;5090864;28;20446;-69
2021/06/14 11:33:54;;;;;;;4.13;2.50;;;26.80;37.50;;;;;;5089869;28;20438;-70
2021/06/14 11:36:23;;;;;;;6.50;1.30;;;26.90;34.70;;;;;;5090818;28;20423;-69
2021/06/14 11:38:51;;;;;;;3.57;1.60;;;26.90;34.70;;;;;;5091347;28;20770;-69
2021/06/14 11:41:28;;;;;;;4.23;1.80;;;26.90;33.20;;;;;;5089799;28;20435;-70
2021/06/14 11:44:27;;;;;;;3.63;1.70;;;26.90;33.30;;;;;;5091001;28;20492;-70
2021/06/14 11:46:56;;;;;;;3.40;1.70;;;27.00;34.30;;;;;;5090716;28;20441;-69
2021/06/14 11:49:32;;;;;;;3.20;1.57;;;27.00;35.20;;;;;;5088817;28;20471;-70
2021/06/14 11:51:59;;;;;;;2.23;1.50;;;27.10;33.60;;;;;;5090590;28;20438;-69
2021/06/14 11:54:26;;;;;;;4.00;1.70;;;27.10;33.70;;;;;;5091405;28;20430;-70
2021/06/14 11:57:00;;;;;;;2.57;1.33;;;27.00;32.30;;;;;;5090154;28;20796;-70
2021/06/14 11:59:35;;;;;;;5.47;1.53;;;27.10;33.50;;;;;;5091177;28;20896;-69
2021/06/14 12:02:05;;;;;;;2.80;1.60;;;27.10;33.80;;;;;;5089480;28;20843;-69
2021/06/14 12:04:32;;;;;;;2.33;1.23;;;27.10;34.60;;;;;;5090932;28;20508;-70
2021/06/14 12:07:03;;;;;;;2.40;1.30;;;27.20;34.20;;;;;;5090250;28;20453;-69
2021/06/14 12:09:30;;;;;;;4.03;2.00;;;27.20;29.10;;;;;;5087377;28;20506;-69
2021/06/14 12:12:01;;;;;;;2.83;1.40;;;27.20;30.50;;;;;;5086318;28;20520;-69
2021/06/14 12:14:29;;;;;;;2.33;1.47;;;27.20;31.70;;;;;;5091561;28;20437;-69
2021/06/14 12:16:59;;;;;;;2.60;1.40;;;27.30;29.60;;;;;;5090716;28;20434;-70
2021/06/14 12:19:28;;;;;;;1.90;1.20;;;27.20;29.80;;;;;;5083715;28;20439;-70
2021/06/14 12:21:57;;;;;;;3.20;1.60;;;27.20;29.80;;;;;;5087488;28;20945;-70
2021/06/14 12:24:25;;;;;;;3.17;2.00;;;27.20;30.20;;;;;;5090151;28;20936;-70
2021/06/14 12:27:01;;;;;;;2.60;1.07;;;27.30;31.00;;;;;;5094141;28;20553;-70
2021/06/14 12:29:30;;;;;;;5.10;1.30;;;27.30;28.80;;;;;;5091012;28;20988;-69
2021/06/14 12:32:06;;;;;;;2.97;0.90;;;27.20;28.00;;;;;;5083261;28;20521;-70
2021/06/14 12:34:34;;;;;;;2.13;1.00;;;27.20;29.00;;;;;;5090610;28;20438;-70
2021/06/14 12:37:05;;;;;;;1.90;1.10;;;27.30;28.90;;;;;;5088630;28;20446;-69
2021/06/14 12:39:33;;;;;;;4.40;1.63;;;27.30;28.90;;;;;;5089760;28;20426;-70
2021/06/14 12:42:01;;;;;;;2.00;1.20;;;27.30;28.60;;;;;;5090417;28;20827;-69
2021/06/14 12:44:28;;;;;;;2.13;0.90;;;27.30;28.00;;;;;;5090683;28;20439;-70
2021/06/14 12:46:56;;;;;;;2.03;0.93;;;27.30;26.60;;;;;;5095300;28;20435;-71
2021/06/14 12:49:25;;;;;;;2.20;1.13;;;27.30;27.10;;;;;;5089508;28;21003;-70
2021/06/14 12:51:52;;;;;;;3.10;1.63;;;27.30;26.20;;;;;;5096882;28;20443;-71
2021/06/14 12:54:19;;;;;;;2.47;1.43;;;27.30;27.20;;;;;;5093559;28;20508;-69
2021/06/14 12:56:57;;;;;;;1.80;1.00;;;27.30;27.70;;;;;;5093218;28;20466;-70